createdAt,value
2019-03-10T00:00:36.066Z,99.90
2019-03-10T00:03:06.467Z,99.90
2019-03-10T00:05:36.836Z,99.90
2019-03-10T00:08:08.193Z,99.90
2019-03-10T00:10:38.656Z,99.90
2019-03-10T00:13:08.826Z,99.90
2019-03-10T00:15:39.213Z,99.90
2019-03-10T00:18:09.438Z,99.90
2019-03-10T00:20:39.637Z,99.90
2019-03-10T00:23:09.906Z,99.90
2019-03-10T00:25:40.105Z,99.90
2019-03-10T00:28:10.278Z,99.90
2019-03-10T00:30:40.602Z,99.90
2019-03-10T00:33:10.777Z,99.90
2019-03-10T00:35:40.978Z,99.90
2019-03-10T00:38:11.355Z,99.90
2019-03-10T00:40:59.626Z,99.90
2019-03-10T00:43:47.318Z,99.90
2019-03-10T00:46:53.515Z,99.90
2019-03-10T00:49:32.103Z,99.90
2019-03-10T00:52:14.802Z,99.90
2019-03-10T00:54:45.182Z,99.90
2019-03-10T00:57:15.451Z,99.90
2019-03-10T00:59:45.693Z,99.90
2019-03-10T01:02:16.158Z,99.90
2019-03-10T01:04:46.334Z,99.90
2019-03-10T01:07:16.770Z,99.90
2019-03-10T01:09:47.012Z,99.90
2019-03-10T01:12:17.266Z,99.90
2019-03-10T01:14:47.608Z,99.90
2019-03-10T01:17:18.751Z,99.90
2019-03-10T01:19:49.793Z,99.90
2019-03-10T01:22:20.608Z,99.90
2019-03-10T01:24:50.725Z,99.90
2019-03-10T01:27:20.916Z,99.90
2019-03-10T01:29:51.190Z,99.90
2019-03-10T01:32:32.961Z,99.90
2019-03-10T01:35:12.134Z,99.90
2019-03-10T01:37:42.430Z,99.90
2019-03-10T01:40:12.803Z,99.90
2019-03-10T01:42:42.994Z,99.90
2019-03-10T01:45:13.802Z,99.90
2019-03-10T01:47:44.802Z,99.90
2019-03-10T01:50:15.054Z,99.90
2019-03-10T01:52:45.270Z,99.90
2019-03-10T01:55:15.517Z,99.90
2019-03-10T01:57:45.897Z,99.90
2019-03-10T02:00:17.672Z,99.90
2019-03-10T02:02:47.885Z,99.90
2019-03-10T02:05:18.136Z,99.90
2019-03-10T02:07:48.330Z,99.90
2019-03-10T02:10:18.601Z,99.90
2019-03-10T02:12:48.862Z,99.90
2019-03-10T02:15:19.121Z,99.90
2019-03-10T02:17:49.304Z,99.90
2019-03-10T02:20:19.672Z,99.90
2019-03-10T02:22:50.061Z,99.90
2019-03-10T02:25:20.340Z,99.90
2019-03-10T02:27:50.521Z,99.90
2019-03-10T02:30:20.960Z,99.90
2019-03-10T02:32:51.359Z,99.90
2019-03-10T02:35:21.591Z,99.90
2019-03-10T02:37:52.681Z,99.90
2019-03-10T02:40:23.048Z,99.90
2019-03-10T02:42:53.239Z,99.90
2019-03-10T02:45:23.406Z,99.90
2019-03-10T02:47:53.585Z,99.90
2019-03-10T02:50:23.845Z,99.90
2019-03-10T02:52:54.636Z,99.90
2019-03-10T02:55:24.905Z,99.90
2019-03-10T02:57:55.294Z,99.90
2019-03-10T03:00:25.470Z,99.90
2019-03-10T03:02:55.779Z,99.90
2019-03-10T03:05:26.051Z,99.90
2019-03-10T03:07:56.422Z,99.90
2019-03-10T03:10:26.591Z,99.90
2019-03-10T03:12:56.881Z,99.90
2019-03-10T03:15:27.152Z,99.90
2019-03-10T03:17:57.538Z,99.90
2019-03-10T03:20:27.706Z,99.90
2019-03-10T03:22:58.062Z,99.90
2019-03-10T03:25:28.415Z,99.90
2019-03-10T03:27:59.286Z,99.90
2019-03-10T03:30:29.464Z,99.90
2019-03-10T03:33:00.735Z,99.90
2019-03-10T03:35:46.073Z,99.90
2019-03-10T03:38:34.937Z,99.90
2019-03-10T03:41:08.153Z,99.90
2019-03-10T03:43:38.541Z,99.90
2019-03-10T03:46:09.601Z,99.90
2019-03-10T03:48:40.084Z,99.90
2019-03-10T03:51:10.354Z,99.90
2019-03-10T03:53:40.640Z,99.90
2019-03-10T03:56:10.904Z,99.90
2019-03-10T03:58:41.081Z,99.90
2019-03-10T04:01:18.838Z,99.90
2019-03-10T04:03:49.322Z,99.90
2019-03-10T04:06:19.467Z,99.90
2019-03-10T04:08:50.422Z,99.90
2019-03-10T04:11:20.684Z,99.90
2019-03-10T04:13:50.964Z,99.90
2019-03-10T04:16:21.144Z,99.90
2019-03-10T04:18:51.314Z,99.90
2019-03-10T04:21:22.369Z,99.90
2019-03-10T04:23:52.642Z,99.90
2019-03-10T04:26:22.792Z,99.90
2019-03-10T04:28:53.376Z,99.90
2019-03-10T04:31:23.597Z,99.90
2019-03-10T04:33:53.806Z,99.90
2019-03-10T04:36:24.243Z,99.90
2019-03-10T04:38:54.524Z,99.90
2019-03-10T04:41:24.882Z,99.90
2019-03-10T04:43:55.060Z,99.90
2019-03-10T04:46:25.430Z,99.90
2019-03-10T04:48:55.606Z,99.90
2019-03-10T04:51:26.068Z,99.90
2019-03-10T04:53:56.499Z,99.90
2019-03-10T04:56:28.430Z,99.90
2019-03-10T04:58:58.593Z,99.90
2019-03-10T05:01:29.970Z,99.90
2019-03-10T05:04:00.136Z,99.90
2019-03-10T05:06:30.296Z,99.90
2019-03-10T05:09:00.482Z,99.90
2019-03-10T05:11:30.741Z,99.90
2019-03-10T05:14:01.024Z,99.90
2019-03-10T05:16:31.672Z,99.90
2019-03-10T05:19:01.854Z,99.90
2019-03-10T05:21:32.004Z,99.90
2019-03-10T05:24:04.849Z,99.90
2019-03-10T05:26:35.109Z,99.90
2019-03-10T05:29:05.280Z,99.90
2019-03-10T05:31:35.572Z,99.90
2019-03-10T05:34:06.620Z,99.90
2019-03-10T05:36:37.604Z,99.90
2019-03-10T05:39:08.142Z,99.90
2019-03-10T05:41:38.396Z,99.90
2019-03-10T05:44:08.771Z,99.90
2019-03-10T05:46:39.841Z,99.90
2019-03-10T05:49:10.004Z,99.90
2019-03-10T05:51:40.286Z,99.90
2019-03-10T05:54:10.439Z,99.90
2019-03-10T05:56:41.017Z,99.90
2019-03-10T05:59:11.190Z,99.90
2019-03-10T06:01:41.544Z,99.90
2019-03-10T06:04:12.210Z,99.90
2019-03-10T06:06:42.393Z,99.90
2019-03-10T06:09:12.556Z,99.90
2019-03-10T06:11:42.735Z,99.90
2019-03-10T06:14:12.896Z,99.90
2019-03-10T06:16:43.078Z,99.90
2019-03-10T06:19:13.446Z,99.90
2019-03-10T06:21:43.722Z,99.90
2019-03-10T06:24:13.889Z,99.90
2019-03-10T06:26:44.277Z,99.90
2019-03-10T06:29:14.535Z,99.90
2019-03-10T06:31:44.722Z,99.90
2019-03-10T06:34:14.882Z,99.90
2019-03-10T06:36:45.060Z,99.90
2019-03-10T06:39:15.432Z,99.90
2019-03-10T06:41:45.722Z,99.90
2019-03-10T06:44:15.885Z,99.90
2019-03-10T06:46:46.080Z,99.90
2019-03-10T06:49:16.345Z,99.90
2019-03-10T06:51:46.533Z,99.90
2019-03-10T06:54:16.692Z,99.90
2019-03-10T06:56:46.989Z,99.90
2019-03-10T06:59:17.365Z,99.90
2019-03-10T07:01:47.564Z,99.90
2019-03-10T07:04:17.825Z,99.90
2019-03-10T07:06:48.021Z,99.90
2019-03-10T07:09:18.305Z,99.90
2019-03-10T07:11:48.604Z,99.90
2019-03-10T07:14:18.869Z,99.90
2019-03-10T07:16:49.056Z,99.90
2019-03-10T07:19:19.228Z,99.90
2019-03-10T07:21:49.412Z,99.90
2019-03-10T07:24:20.284Z,99.90
2019-03-10T07:26:50.482Z,99.90
2019-03-10T07:29:31.584Z,99.90
2019-03-10T07:32:10.055Z,99.90
2019-03-10T07:34:58.562Z,99.90
2019-03-10T07:37:33.381Z,99.90
2019-03-10T07:40:09.772Z,99.90
2019-03-10T07:42:50.447Z,99.90
2019-03-10T07:45:25.063Z,99.90
2019-03-10T07:48:02.781Z,99.90
2019-03-10T07:50:40.533Z,99.90
2019-03-10T07:53:28.571Z,99.90
2019-03-10T07:56:03.195Z,99.90
2019-03-10T07:58:51.653Z,99.90
2019-03-10T08:01:23.573Z,99.90
2019-03-10T08:04:07.755Z,99.90
2019-03-10T08:06:54.762Z,99.90
2019-03-10T08:09:38.910Z,99.90
2019-03-10T08:12:10.753Z,99.90
2019-03-10T08:14:43.859Z,99.90
2019-03-10T08:17:33.834Z,99.90
2019-03-10T08:20:15.782Z,99.90
2019-03-10T08:22:47.613Z,99.90
2019-03-10T08:25:25.361Z,99.90
2019-03-10T08:28:07.268Z,99.90
2019-03-10T08:30:41.877Z,99.90
2019-03-10T08:33:22.656Z,99.90
2019-03-10T08:35:57.421Z,99.90
2019-03-10T08:38:45.763Z,99.90
2019-03-10T08:41:17.588Z,99.90
2019-03-10T08:44:07.445Z,99.90
2019-03-10T08:46:44.969Z,99.90
2019-03-10T08:49:44.456Z,99.90
2019-03-10T08:52:07.158Z,99.90
2019-03-10T08:54:42.154Z,99.90
2019-03-10T08:57:14.577Z,99.90
2019-03-10T08:59:58.572Z,99.90
2019-03-10T09:02:36.373Z,99.90
2019-03-10T09:05:11.289Z,99.90
2019-03-10T09:07:48.833Z,99.90
2019-03-10T09:10:37.405Z,99.90
2019-03-10T09:13:18.261Z,99.90
2019-03-10T09:15:55.982Z,99.90
2019-03-10T09:18:39.570Z,99.90
2019-03-10T09:21:19.913Z,99.90
2019-03-10T09:24:06.749Z,99.90
2019-03-10T09:26:50.549Z,99.90
2019-03-10T09:29:28.589Z,99.90
2019-03-10T09:32:15.230Z,99.90
2019-03-10T09:34:49.593Z,99.90
2019-03-10T09:37:27.190Z,99.90
2019-03-10T09:40:02.059Z,99.90
2019-03-10T09:42:45.744Z,99.90
2019-03-10T09:45:17.651Z,99.90
2019-03-10T09:48:04.813Z,99.90
2019-03-10T09:50:36.723Z,99.90
2019-03-10T09:53:11.710Z,99.90
2019-03-10T09:55:59.693Z,99.90
2019-03-10T09:58:37.344Z,99.90
2019-03-10T10:01:09.344Z,99.90
2019-03-10T10:03:50.021Z,99.90
2019-03-10T10:06:27.619Z,99.90
2019-03-10T10:09:14.438Z,99.90
2019-03-10T10:11:55.358Z,99.90
2019-03-10T10:14:35.925Z,99.90
2019-03-10T10:17:24.490Z,99.90
2019-03-10T10:19:59.205Z,99.90
2019-03-10T10:22:33.720Z,99.90
2019-03-10T10:25:09.638Z,99.90
2019-03-10T10:28:00.824Z,99.90
2019-03-10T10:30:38.468Z,99.90
2019-03-10T10:33:10.290Z,99.90
2019-03-10T10:35:42.084Z,99.90
2019-03-10T10:38:31.840Z,99.90
2019-03-10T10:41:03.651Z,99.90
2019-03-10T10:43:35.766Z,99.90
2019-03-10T10:46:07.704Z,99.90
2019-03-10T10:48:39.537Z,99.90
2019-03-10T10:51:11.420Z,99.90
2019-03-10T10:53:43.247Z,99.90
2019-03-10T10:56:31.729Z,99.90
2019-03-10T10:59:03.547Z,99.90
2019-03-10T11:01:35.529Z,99.90
2019-03-10T11:04:22.417Z,99.90
2019-03-10T11:07:06.003Z,99.90
2019-03-10T11:09:46.789Z,99.90
2019-03-10T11:12:18.817Z,99.90
2019-03-10T11:14:59.854Z,99.90
2019-03-10T11:17:46.534Z,99.90
2019-03-10T11:20:34.661Z,99.90
2019-03-10T11:23:06.536Z,99.90
2019-03-10T11:25:41.125Z,99.90
2019-03-10T11:28:18.869Z,99.90
2019-03-10T11:30:50.702Z,99.90
2019-03-10T11:33:37.586Z,99.90
2019-03-10T11:36:18.493Z,99.90
2019-03-10T11:38:50.369Z,99.90
2019-03-10T11:41:34.340Z,99.90
2019-03-10T11:44:09.230Z,99.90
2019-03-10T11:46:41.046Z,99.90
2019-03-10T11:49:12.945Z,99.90
2019-03-10T11:51:53.597Z,99.90
2019-03-10T11:54:28.988Z,99.90
2019-03-10T11:57:00.865Z,99.90
2019-03-10T11:59:48.905Z,99.90
2019-03-10T12:02:33.037Z,99.90
2019-03-10T12:05:21.445Z,99.90
2019-03-10T12:07:56.253Z,99.90
2019-03-10T12:10:26.433Z,99.90
2019-03-10T12:12:56.589Z,99.90
2019-03-10T12:15:27.080Z,99.90
2019-03-10T12:17:57.347Z,99.90
2019-03-10T12:20:27.523Z,99.90
2019-03-10T12:22:57.694Z,99.90
2019-03-10T12:25:27.873Z,99.90
2019-03-10T12:27:58.029Z,99.90
2019-03-10T12:30:28.329Z,99.90
2019-03-10T12:32:58.477Z,99.90
2019-03-10T12:35:34.501Z,99.90
2019-03-10T12:38:00.510Z,99.90
2019-03-10T12:40:30.795Z,99.90
2019-03-10T12:43:00.953Z,99.90
2019-03-10T12:45:31.206Z,99.90
2019-03-10T12:48:01.470Z,99.90
2019-03-10T12:50:31.649Z,99.90
2019-03-10T12:53:01.909Z,99.90
2019-03-10T12:55:32.585Z,99.90
2019-03-10T12:58:02.745Z,99.90
2019-03-10T13:00:32.975Z,99.90
2019-03-10T13:03:03.089Z,99.90
2019-03-10T13:05:33.327Z,99.90
2019-03-10T13:08:03.954Z,99.90
2019-03-10T13:10:34.237Z,99.90
2019-03-10T13:13:04.584Z,99.90
2019-03-10T13:15:34.857Z,99.90
2019-03-10T13:18:05.080Z,99.90
2019-03-10T13:20:35.261Z,99.90
2019-03-10T13:23:05.550Z,99.90
2019-03-10T13:25:35.717Z,99.90
2019-03-10T13:28:05.961Z,99.90
2019-03-10T13:30:36.113Z,99.90
2019-03-10T13:33:06.462Z,99.90
2019-03-10T13:35:36.734Z,99.90
2019-03-10T13:38:06.989Z,99.90
2019-03-10T13:40:37.152Z,99.90
2019-03-10T13:43:07.395Z,99.90
2019-03-10T13:45:37.561Z,99.90
2019-03-10T13:48:07.744Z,99.90
2019-03-10T13:50:37.924Z,99.90
2019-03-10T13:53:08.109Z,99.90
2019-03-10T13:55:38.461Z,99.90
2019-03-10T13:58:08.654Z,99.90
2019-03-10T14:00:38.892Z,99.90
2019-03-10T14:03:09.105Z,99.90
2019-03-10T14:05:39.647Z,99.90
2019-03-10T14:08:09.961Z,99.90
2019-03-10T14:10:40.205Z,99.90
2019-03-10T14:13:10.459Z,99.90
2019-03-10T14:15:40.740Z,99.90
2019-03-10T14:18:11.189Z,99.90
2019-03-10T14:20:41.581Z,99.90
2019-03-10T14:23:11.836Z,99.90
2019-03-10T14:25:42.441Z,99.90
2019-03-10T14:28:12.742Z,99.90
2019-03-10T14:30:43.178Z,99.90
2019-03-10T14:33:13.437Z,99.90
2019-03-10T14:35:43.615Z,99.90
2019-03-10T14:38:13.888Z,99.90
2019-03-10T14:40:44.158Z,99.90
2019-03-10T14:43:14.413Z,99.90
2019-03-10T14:45:44.652Z,99.90
2019-03-10T14:48:14.845Z,99.90
2019-03-10T14:50:45.963Z,99.90
2019-03-10T14:53:16.397Z,99.90
2019-03-10T14:55:46.568Z,99.90
2019-03-10T14:58:16.753Z,99.90
2019-03-10T15:00:46.918Z,99.90
2019-03-10T15:03:17.149Z,99.90
2019-03-10T15:05:47.384Z,99.90
2019-03-10T15:08:17.586Z,99.90
2019-03-10T15:10:47.745Z,99.90
2019-03-10T15:13:17.925Z,99.90
2019-03-10T15:15:48.093Z,99.90
2019-03-10T15:18:18.290Z,99.90
2019-03-10T15:20:48.463Z,99.90
2019-03-10T15:23:18.949Z,99.90
2019-03-10T15:25:49.217Z,99.90
2019-03-10T15:28:19.401Z,99.90
2019-03-10T15:30:50.574Z,99.90
2019-03-10T15:33:20.871Z,99.90
2019-03-10T15:35:51.045Z,99.90
2019-03-10T15:38:21.238Z,99.90
2019-03-10T15:40:51.413Z,99.90
2019-03-10T15:43:21.605Z,99.90
2019-03-10T15:45:51.786Z,99.90
2019-03-10T15:48:21.973Z,99.90
2019-03-10T15:50:52.245Z,99.90
2019-03-10T15:53:22.536Z,99.90
2019-03-10T15:55:52.773Z,99.90
2019-03-10T15:58:23.174Z,99.90
2019-03-10T16:00:53.617Z,96.70
2019-03-10T16:03:23.936Z,92.90
2019-03-10T16:05:54.210Z,92.90
2019-03-10T16:08:24.401Z,91.70
2019-03-10T16:10:54.572Z,90.00
2019-03-10T16:13:24.769Z,89.40
2019-03-10T16:15:54.952Z,91.20
2019-03-10T16:18:25.140Z,90.50
2019-03-10T16:20:55.509Z,90.70
2019-03-10T16:23:25.705Z,93.20
2019-03-10T16:25:55.885Z,98.20
2019-03-10T16:28:26.082Z,99.90
2019-03-10T16:30:56.266Z,99.90
2019-03-10T16:33:26.965Z,99.90
2019-03-10T16:35:57.255Z,99.90
2019-03-10T16:38:27.628Z,99.90
2019-03-10T16:40:57.780Z,99.90
2019-03-10T16:43:28.882Z,99.90
2019-03-10T16:45:59.162Z,99.90
2019-03-10T16:48:29.413Z,99.90
2019-03-10T16:50:59.568Z,99.90
2019-03-10T16:53:29.880Z,99.90
2019-03-10T16:56:03.174Z,99.90
2019-03-10T16:58:31.969Z,99.90
2019-03-10T17:01:02.370Z,99.90
2019-03-10T17:03:32.526Z,99.90
2019-03-10T17:06:02.717Z,99.90
2019-03-10T17:08:32.991Z,98.50
2019-03-10T17:11:03.404Z,95.50
2019-03-10T17:13:34.483Z,96.60
2019-03-10T17:16:04.846Z,97.60
2019-03-10T17:18:35.018Z,95.80
2019-03-10T17:21:05.393Z,94.00
2019-03-10T17:23:36.171Z,91.80
2019-03-10T17:26:07.327Z,90.80
2019-03-10T17:28:37.939Z,91.40
2019-03-10T17:31:08.987Z,90.50
2019-03-10T17:33:41.894Z,91.00
2019-03-10T17:36:12.528Z,90.00
2019-03-10T17:38:42.923Z,87.90
2019-03-10T17:41:13.268Z,86.10
2019-03-10T17:43:46.751Z,85.90
2019-03-10T17:46:18.205Z,82.80
2019-03-10T17:48:48.556Z,86.30
2019-03-10T17:51:19.039Z,82.20
2019-03-10T17:53:49.427Z,81.40
2019-03-10T17:56:19.624Z,83.80
2019-03-10T17:58:49.932Z,80.90
2019-03-10T18:01:20.085Z,83.90
2019-03-10T18:03:50.256Z,81.40
2019-03-10T18:06:20.459Z,82.40
2019-03-10T18:08:50.633Z,82.50
2019-03-10T18:11:22.324Z,83.30
2019-03-10T18:13:52.672Z,84.30
2019-03-10T18:16:22.862Z,83.30
2019-03-10T18:18:53.051Z,85.60
2019-03-10T18:21:23.342Z,84.80
2019-03-10T18:23:53.504Z,85.90
2019-03-10T18:26:23.805Z,89.20
2019-03-10T18:28:54.169Z,89.30
2019-03-10T18:31:24.633Z,87.70
2019-03-10T18:33:54.802Z,89.10
2019-03-10T18:36:25.002Z,88.40
2019-03-10T18:38:55.236Z,88.80
2019-03-10T18:41:25.506Z,88.70
2019-03-10T18:43:55.764Z,88.90
2019-03-10T18:46:25.955Z,90.90
2019-03-10T18:48:56.125Z,95.60
2019-03-10T18:51:26.316Z,99.90
2019-03-10T18:53:56.484Z,99.90
2019-03-10T18:56:26.681Z,99.90
2019-03-10T18:58:56.960Z,99.90
2019-03-10T19:01:27.177Z,99.90
2019-03-10T19:03:57.349Z,99.90
2019-03-10T19:06:27.641Z,99.90
2019-03-10T19:08:57.872Z,99.90
2019-03-10T19:11:28.257Z,99.90
2019-03-10T19:13:58.420Z,99.90
2019-03-10T19:16:29.554Z,99.90
2019-03-10T19:18:59.801Z,99.90
2019-03-10T19:21:30.101Z,99.90
2019-03-10T19:24:00.264Z,99.90
2019-03-10T19:26:30.653Z,99.90
2019-03-10T19:29:00.981Z,99.90
2019-03-10T19:31:33.061Z,99.90
2019-03-10T19:34:03.779Z,99.90
2019-03-10T19:36:34.099Z,99.90
2019-03-10T19:39:06.225Z,99.90
2019-03-10T19:41:36.901Z,99.90
2019-03-10T19:44:07.234Z,99.90
2019-03-10T19:46:37.555Z,99.90
2019-03-10T19:49:07.819Z,99.90
2019-03-10T19:51:38.345Z,99.90
2019-03-10T19:54:08.601Z,99.90
2019-03-10T19:56:39.239Z,99.90
2019-03-10T19:59:09.447Z,99.90
2019-03-10T20:01:39.632Z,99.90
2019-03-10T20:04:09.792Z,99.90
2019-03-10T20:06:39.974Z,99.90
2019-03-10T20:09:10.204Z,99.90
2019-03-10T20:11:40.500Z,99.90
2019-03-10T20:14:10.860Z,99.90
2019-03-10T20:16:41.245Z,99.90
2019-03-10T20:19:11.410Z,99.90
2019-03-10T20:21:41.730Z,99.90
2019-03-10T20:24:12.699Z,99.90
2019-03-10T20:26:42.973Z,99.90
2019-03-10T20:29:13.348Z,99.90
2019-03-10T20:31:43.641Z,99.90
2019-03-10T20:34:13.829Z,99.90
2019-03-10T20:36:44.100Z,99.90
2019-03-10T20:39:14.534Z,99.90
2019-03-10T20:41:44.730Z,99.90
2019-03-10T20:44:14.994Z,99.90
2019-03-10T20:46:45.180Z,99.90
2019-03-10T20:49:15.757Z,99.90
2019-03-10T20:51:45.949Z,99.90
2019-03-10T20:54:16.218Z,99.90
2019-03-10T20:56:46.500Z,99.90
2019-03-10T20:59:16.789Z,99.90
2019-03-10T21:01:46.972Z,99.50
2019-03-10T21:04:17.157Z,99.70
2019-03-10T21:06:47.525Z,99.30
2019-03-10T21:09:17.710Z,99.80
2019-03-10T21:11:48.052Z,99.80
2019-03-10T21:14:18.237Z,99.90
2019-03-10T21:16:48.400Z,99.90
2019-03-10T21:19:18.593Z,99.90
2019-03-10T21:21:48.958Z,99.90
2019-03-10T21:24:19.212Z,99.90
2019-03-10T21:26:49.400Z,99.20
2019-03-10T21:29:19.585Z,99.90
2019-03-10T21:31:49.853Z,99.90
2019-03-10T21:34:20.148Z,99.90
2019-03-10T21:36:50.412Z,99.90
2019-03-10T21:39:20.606Z,99.90
2019-03-10T21:41:50.768Z,99.90
2019-03-10T21:44:26.634Z,99.90
2019-03-10T21:46:52.945Z,99.90
2019-03-10T21:49:23.132Z,99.90
2019-03-10T21:51:53.305Z,99.90
2019-03-10T21:54:23.697Z,99.90
2019-03-10T21:56:53.962Z,99.90
2019-03-10T21:59:24.207Z,99.90
2019-03-10T22:01:54.364Z,99.90
2019-03-10T22:04:24.726Z,99.90
2019-03-10T22:06:55.089Z,99.90
2019-03-10T22:09:25.382Z,99.90
2019-03-10T22:11:55.745Z,99.90
2019-03-10T22:14:28.526Z,99.90
2019-03-10T22:16:57.817Z,99.90
2019-03-10T22:19:28.106Z,99.90
2019-03-10T22:21:58.577Z,99.90
2019-03-10T22:24:28.763Z,99.90
2019-03-10T22:26:58.924Z,99.90
2019-03-10T22:29:29.217Z,99.90
2019-03-10T22:31:59.392Z,99.90
2019-03-10T22:34:29.584Z,99.90
2019-03-10T22:36:59.853Z,99.90
2019-03-10T22:39:30.049Z,99.90
2019-03-10T22:42:00.216Z,99.90
2019-03-10T22:44:30.406Z,99.90
2019-03-10T22:47:00.752Z,99.90
2019-03-10T22:49:31.240Z,99.90
2019-03-10T22:52:01.681Z,99.90
2019-03-10T22:54:31.870Z,99.90
2019-03-10T22:57:02.037Z,99.90
2019-03-10T22:59:32.433Z,99.90
2019-03-10T23:02:02.998Z,99.90
2019-03-10T23:04:33.181Z,99.90
2019-03-10T23:07:03.353Z,99.90
2019-03-10T23:09:33.641Z,99.90
2019-03-10T23:12:03.913Z,99.90
2019-03-10T23:14:34.105Z,99.90
2019-03-10T23:17:04.505Z,99.90
2019-03-10T23:19:34.683Z,99.90
2019-03-10T23:22:04.849Z,99.90
2019-03-10T23:24:35.138Z,99.90
2019-03-10T23:27:05.372Z,99.90
2019-03-10T23:29:35.566Z,99.90
2019-03-10T23:32:05.738Z,99.90
2019-03-10T23:34:36.035Z,99.90
2019-03-10T23:37:06.196Z,99.90
2019-03-10T23:39:36.789Z,99.90
2019-03-10T23:42:07.057Z,99.90
2019-03-10T23:44:37.450Z,99.90
2019-03-10T23:47:07.617Z,99.90
2019-03-10T23:49:37.906Z,99.90
2019-03-10T23:52:08.183Z,99.90
2019-03-10T23:54:38.356Z,99.90
2019-03-10T23:57:08.989Z,99.90
2019-03-10T23:59:39.377Z,99.90
